Airport View

Enter AWOS ICAO identifier for current METAR.

ex. KFNL

KLHM 051335Z AUTO 16008KT 10SM CLR 16/12 A2988 RMK AO1

5 Aug 2020 13:44

Frequency: 124.25

Phone: 916-645-0698

Other Area AWOS: KAUN - KBAB - KMCC - KMYV

TAF AMD KBAB 051303Z 0513/0617 17005KT 9999 SKC QNH2984INS BECMG 0522/0523 20010KT 9999 SKC QNH2978INS BECMG 0605/0606 18009KT 9999 FEW010 QNH2983INS TX29/0600Z TN15/0514Z